createdAt,value
2023-05-16T00:02:20.532Z,99.90
2023-05-16T00:04:50.635Z,99.90
2023-05-16T00:07:19.176Z,99.90
2023-05-16T00:09:47.472Z,99.90
2023-05-16T00:12:17.788Z,99.90
2023-05-16T00:14:46.280Z,99.90
2023-05-16T00:17:17.610Z,99.90
2023-05-16T00:19:47.532Z,99.90
2023-05-16T00:22:17.652Z,99.90
2023-05-16T00:24:46.263Z,99.90
2023-05-16T00:27:14.526Z,99.90
2023-05-16T00:29:43.920Z,99.90
2023-05-16T00:32:12.388Z,99.90
2023-05-16T00:34:41.614Z,99.90
2023-05-16T00:37:09.951Z,99.90
2023-05-16T00:39:40.325Z,99.90
2023-05-16T00:42:08.744Z,99.90
2023-05-16T00:44:37.115Z,99.90
2023-05-16T00:47:05.704Z,99.90
2023-05-16T00:49:34.893Z,99.90
2023-05-16T00:52:03.999Z,99.90
2023-05-16T00:54:32.720Z,99.90
2023-05-16T00:57:03.540Z,99.90
2023-05-16T00:59:31.958Z,99.90
2023-05-16T01:02:00.893Z,99.90
2023-05-16T01:04:30.445Z,99.90
2023-05-16T01:06:59.020Z,99.90
2023-05-16T01:09:27.377Z,99.90
2023-05-16T01:12:03.834Z,99.90
2023-05-16T01:14:43.545Z,99.90
2023-05-16T01:17:21.452Z,99.90
2023-05-16T01:20:04.669Z,99.90
2023-05-16T01:22:48.442Z,99.90
2023-05-16T01:25:28.598Z,99.90
2023-05-16T01:27:59.493Z,99.90
2023-05-16T01:30:27.869Z,99.90
2023-05-16T01:32:56.193Z,99.90
2023-05-16T01:35:26.514Z,99.90
2023-05-16T01:38:05.779Z,99.90
2023-05-16T01:40:40.242Z,99.90
2023-05-16T01:43:14.243Z,99.90
2023-05-16T01:45:51.854Z,99.90
2023-05-16T01:48:24.732Z,99.90
2023-05-16T01:50:57.602Z,99.90
2023-05-16T01:53:30.460Z,99.90
2023-05-16T01:56:02.616Z,99.90
2023-05-16T01:58:35.109Z,99.90
2023-05-16T02:01:05.010Z,99.90
2023-05-16T02:03:33.886Z,99.90
2023-05-16T02:06:02.482Z,99.90
2023-05-16T02:08:31.210Z,99.90
2023-05-16T02:10:59.525Z,99.90
2023-05-16T02:13:27.833Z,99.90
2023-05-16T02:15:57.692Z,99.90
2023-05-16T02:18:26.103Z,99.90
2023-05-16T02:20:54.394Z,99.90
2023-05-16T02:23:22.842Z,99.90
2023-05-16T02:25:51.146Z,99.90
2023-05-16T02:28:19.643Z,99.90
2023-05-16T02:30:57.082Z,99.90
2023-05-16T02:33:27.372Z,99.90
2023-05-16T02:35:56.035Z,99.90
2023-05-16T02:38:24.377Z,99.90
2023-05-16T02:40:52.738Z,99.90
2023-05-16T02:43:22.982Z,99.90
2023-05-16T02:45:51.359Z,99.90
2023-05-16T02:48:19.697Z,99.90
2023-05-16T02:50:49.457Z,99.90
2023-05-16T02:53:17.827Z,99.90
2023-05-16T02:55:46.406Z,99.90
2023-05-16T02:58:14.881Z,99.90
2023-05-16T03:00:43.253Z,99.90
2023-05-16T03:03:11.688Z,99.90
2023-05-16T03:05:40.123Z,99.90
2023-05-16T03:08:09.875Z,99.90
2023-05-16T03:10:38.158Z,99.90
2023-05-16T03:13:06.471Z,99.90
2023-05-16T03:15:34.807Z,99.90
2023-05-16T03:18:04.333Z,99.90
2023-05-16T03:20:32.755Z,99.90
2023-05-16T03:23:01.119Z,99.90
2023-05-16T03:25:31.771Z,99.90
2023-05-16T03:28:00.120Z,99.90
2023-05-16T03:30:28.628Z,99.90
2023-05-16T03:32:57.712Z,99.90
2023-05-16T03:35:26.515Z,99.90
2023-05-16T03:37:55.199Z,99.90
2023-05-16T03:40:23.702Z,99.90
2023-05-16T03:42:54.786Z,99.90
2023-05-16T03:45:23.103Z,99.90
2023-05-16T03:47:51.614Z,99.90
2023-05-16T03:50:20.033Z,99.90
2023-05-16T03:52:48.340Z,99.90
2023-05-16T03:55:16.691Z,99.90
2023-05-16T03:57:46.663Z,99.90
2023-05-16T04:00:17.305Z,99.90
2023-05-16T04:02:45.867Z,99.90
2023-05-16T04:05:14.899Z,99.90
2023-05-16T04:07:43.399Z,99.90
2023-05-16T04:10:12.475Z,99.90
2023-05-16T04:12:40.779Z,99.90
2023-05-16T04:15:09.869Z,99.90
2023-05-16T04:17:40.119Z,99.90
2023-05-16T04:20:09.229Z,99.90
2023-05-16T04:22:37.550Z,99.90
2023-05-16T04:25:06.448Z,99.90
2023-05-16T04:27:34.835Z,99.90
2023-05-16T04:30:03.433Z,99.90
2023-05-16T04:32:34.594Z,99.90
2023-05-16T04:35:04.603Z,99.90
2023-05-16T04:37:33.039Z,99.90
2023-05-16T04:40:01.353Z,99.90
2023-05-16T04:42:29.677Z,99.90
2023-05-16T04:44:58.587Z,99.90
2023-05-16T04:47:27.003Z,99.90
2023-05-16T04:49:55.305Z,99.90
2023-05-16T04:52:24.989Z,99.90
2023-05-16T04:54:53.322Z,99.90
2023-05-16T04:57:21.664Z,99.90
2023-05-16T04:59:49.948Z,99.90
2023-05-16T05:02:18.363Z,99.90
2023-05-16T05:04:46.721Z,99.90
2023-05-16T05:07:15.223Z,99.90
2023-05-16T05:09:44.940Z,99.90
2023-05-16T05:12:13.471Z,99.90
2023-05-16T05:14:41.804Z,99.90
2023-05-16T05:17:10.161Z,99.90
2023-05-16T05:19:38.620Z,99.90
2023-05-16T05:22:07.279Z,99.90
2023-05-16T05:24:35.942Z,99.90
2023-05-16T05:27:06.023Z,99.90
2023-05-16T05:29:34.331Z,99.90
2023-05-16T05:32:02.749Z,99.90
2023-05-16T05:34:31.504Z,99.90
2023-05-16T05:36:59.880Z,99.90
2023-05-16T05:39:28.210Z,99.90
2023-05-16T05:41:56.518Z,99.90
2023-05-16T05:44:26.310Z,99.90
2023-05-16T05:46:55.067Z,99.90
2023-05-16T05:49:23.646Z,99.90
2023-05-16T05:51:52.426Z,99.90
2023-05-16T05:54:20.932Z,99.90
2023-05-16T05:56:49.412Z,99.90
2023-05-16T05:59:17.914Z,99.90
2023-05-16T06:01:47.665Z,99.90
2023-05-16T06:04:16.144Z,99.90
2023-05-16T06:06:44.671Z,99.90
2023-05-16T06:09:13.778Z,99.90
2023-05-16T06:11:42.279Z,99.90
2023-05-16T06:14:11.086Z,99.90
2023-05-16T06:16:40.250Z,99.90
2023-05-16T06:19:10.365Z,99.90
2023-05-16T06:21:38.778Z,99.90
2023-05-16T06:24:07.153Z,99.90
2023-05-16T06:26:35.725Z,99.90
2023-05-16T06:29:04.078Z,99.90
2023-05-16T06:31:33.009Z,99.90
2023-05-16T06:34:01.310Z,99.90
2023-05-16T06:36:31.093Z,99.90
2023-05-16T06:38:59.504Z,99.90
2023-05-16T06:41:27.865Z,99.90
2023-05-16T06:43:56.451Z,99.90
2023-05-16T06:46:24.998Z,99.90
2023-05-16T06:48:53.470Z,99.90
2023-05-16T06:51:21.812Z,99.90
2023-05-16T06:53:51.757Z,99.90
2023-05-16T06:56:20.227Z,99.90
2023-05-16T06:58:49.601Z,99.90
2023-05-16T07:01:18.133Z,99.90
2023-05-16T07:03:46.775Z,99.90
2023-05-16T07:06:15.400Z,99.90
2023-05-16T07:08:43.898Z,99.90
2023-05-16T07:11:13.695Z,99.90
2023-05-16T07:13:42.161Z,99.90
2023-05-16T07:16:10.720Z,99.90
2023-05-16T07:18:39.543Z,99.90
2023-05-16T07:21:08.043Z,99.90
2023-05-16T07:23:36.481Z,99.90
2023-05-16T07:26:05.095Z,99.90
2023-05-16T07:28:34.949Z,99.90
2023-05-16T07:31:03.295Z,99.90
2023-05-16T07:33:31.633Z,99.90
2023-05-16T07:36:12.171Z,99.20
2023-05-16T07:38:45.196Z,99.90
2023-05-16T07:41:13.913Z,98.80
2023-05-16T07:43:43.802Z,99.20
2023-05-16T07:46:12.729Z,98.90
2023-05-16T07:48:41.184Z,98.50
2023-05-16T07:51:09.771Z,98.60
2023-05-16T07:53:38.234Z,98.30
2023-05-16T07:56:08.405Z,99.30
2023-05-16T07:58:37.493Z,99.20
2023-05-16T08:01:07.215Z,98.60
2023-05-16T08:03:37.249Z,99.20
2023-05-16T08:06:06.110Z,98.90
2023-05-16T08:08:34.786Z,98.70
2023-05-16T08:11:03.346Z,99.30
2023-05-16T08:13:31.758Z,99.10
2023-05-16T08:16:00.260Z,98.70
2023-05-16T08:18:30.071Z,98.00
2023-05-16T08:20:58.469Z,97.90
2023-05-16T08:23:26.870Z,98.70
2023-05-16T08:25:55.558Z,97.50
2023-05-16T08:28:23.947Z,97.80
2023-05-16T08:30:52.477Z,98.00
2023-05-16T08:33:21.071Z,97.90
2023-05-16T08:35:52.778Z,96.50
2023-05-16T08:38:21.456Z,97.30
2023-05-16T08:40:49.929Z,96.40
2023-05-16T08:43:18.554Z,94.90
2023-05-16T08:45:47.213Z,95.00
2023-05-16T08:48:17.937Z,94.40
2023-05-16T08:50:46.421Z,95.70
2023-05-16T08:53:18.971Z,94.70
2023-05-16T08:55:47.599Z,94.30
2023-05-16T08:58:16.946Z,94.80
2023-05-16T09:00:45.713Z,94.90
2023-05-16T09:03:14.765Z,95.50
2023-05-16T09:05:43.546Z,95.60
2023-05-16T09:08:11.968Z,95.30
2023-05-16T09:10:41.782Z,96.00
2023-05-16T09:13:10.109Z,96.60
2023-05-16T09:15:38.529Z,95.80
2023-05-16T09:18:12.925Z,96.00
2023-05-16T09:20:47.782Z,95.60
2023-05-16T09:23:16.660Z,96.80
2023-05-16T09:25:46.563Z,95.70
2023-05-16T09:28:15.120Z,94.20
2023-05-16T09:30:49.142Z,94.80
2023-05-16T09:33:17.865Z,95.50
2023-05-16T09:35:46.257Z,94.00
2023-05-16T09:38:18.353Z,94.60
2023-05-16T09:40:48.276Z,94.40
2023-05-16T09:43:18.185Z,92.30
2023-05-16T09:45:48.180Z,92.10
2023-05-16T09:48:18.110Z,92.60
2023-05-16T09:50:52.981Z,93.00
2023-05-16T09:53:28.605Z,93.20
2023-05-16T09:56:09.374Z,92.80
2023-05-16T09:58:39.782Z,93.50
2023-05-16T10:01:11.268Z,92.20
2023-05-16T10:03:41.289Z,92.40
2023-05-16T10:06:10.496Z,91.90
2023-05-16T10:08:39.695Z,91.10
2023-05-16T10:11:09.554Z,90.70
2023-05-16T10:13:38.013Z,91.90
2023-05-16T10:16:09.182Z,92.30
2023-05-16T10:18:39.443Z,91.00
2023-05-16T10:21:12.033Z,90.70
2023-05-16T10:23:43.902Z,91.00
2023-05-16T10:26:15.132Z,92.80
2023-05-16T10:28:43.795Z,92.20
2023-05-16T10:31:12.656Z,92.60
2023-05-16T10:33:41.402Z,93.70
2023-05-16T10:36:10.936Z,93.60
2023-05-16T10:38:40.351Z,91.80
2023-05-16T10:41:09.400Z,92.00
2023-05-16T10:43:39.198Z,92.20
2023-05-16T10:46:10.383Z,92.50
2023-05-16T10:48:40.328Z,93.20
2023-05-16T10:51:36.837Z,91.90
2023-05-16T10:54:10.569Z,90.60
2023-05-16T10:56:39.119Z,90.10
2023-05-16T10:59:24.700Z,91.40
2023-05-16T11:01:55.242Z,90.80
2023-05-16T11:04:23.742Z,91.50
2023-05-16T11:06:54.029Z,92.40
2023-05-16T11:09:26.588Z,91.20
2023-05-16T11:12:00.696Z,92.60
2023-05-16T11:14:37.533Z,90.80
2023-05-16T11:17:10.634Z,90.00
2023-05-16T11:19:44.268Z,90.80
2023-05-16T11:22:24.998Z,89.30
2023-05-16T11:24:56.145Z,89.20
2023-05-16T11:27:27.844Z,89.50
2023-05-16T11:30:03.186Z,90.30
2023-05-16T11:32:35.244Z,89.50
2023-05-16T11:35:04.818Z,88.00
2023-05-16T11:37:33.307Z,90.10
2023-05-16T11:40:02.452Z,87.90
2023-05-16T11:42:33.999Z,86.70
2023-05-16T11:45:09.336Z,84.50
2023-05-16T11:47:38.899Z,86.90
2023-05-16T11:50:09.984Z,86.60
2023-05-16T11:52:38.931Z,89.20
2023-05-16T11:55:11.181Z,90.20
2023-05-16T11:57:42.067Z,89.60
2023-05-16T12:00:19.453Z,89.60
2023-05-16T12:02:48.765Z,91.00
2023-05-16T12:05:18.237Z,88.20
2023-05-16T12:07:47.359Z,88.50
2023-05-16T12:10:17.143Z,86.80
2023-05-16T12:12:47.428Z,85.40
2023-05-16T12:15:17.644Z,88.20
2023-05-16T12:17:48.183Z,87.00
2023-05-16T12:20:17.421Z,84.60
2023-05-16T12:22:46.660Z,84.20
2023-05-16T12:25:29.019Z,84.40
2023-05-16T12:27:59.743Z,85.00
2023-05-16T12:30:31.455Z,85.80
2023-05-16T12:33:01.238Z,86.20
2023-05-16T12:35:32.574Z,85.80
2023-05-16T12:38:01.678Z,85.60
2023-05-16T12:40:31.250Z,83.90
2023-05-16T12:42:59.812Z,85.40
2023-05-16T12:45:29.938Z,90.20
2023-05-16T12:47:58.380Z,87.40
2023-05-16T12:50:29.089Z,84.40
2023-05-16T12:53:01.029Z,85.40
2023-05-16T12:55:29.637Z,84.80
2023-05-16T12:57:58.642Z,83.70
2023-05-16T13:00:27.321Z,82.20
2023-05-16T13:02:57.425Z,82.00
2023-05-16T13:05:25.956Z,83.30
2023-05-16T13:07:54.636Z,82.40
2023-05-16T13:10:23.256Z,82.00
2023-05-16T13:12:51.730Z,85.10
2023-05-16T13:15:20.248Z,85.30
2023-05-16T13:17:49.015Z,84.60
2023-05-16T13:20:19.155Z,84.00
2023-05-16T13:22:47.822Z,81.80
2023-05-16T13:25:18.056Z,81.90
2023-05-16T13:27:46.686Z,83.10
2023-05-16T13:30:15.177Z,81.90
2023-05-16T13:32:43.653Z,80.10
2023-05-16T13:35:12.253Z,81.90
2023-05-16T13:37:42.014Z,82.10
2023-05-16T13:40:11.263Z,84.30
2023-05-16T13:42:40.141Z,84.20
2023-05-16T13:45:09.824Z,79.90
2023-05-16T13:47:38.325Z,81.10
2023-05-16T13:50:10.244Z,81.80
2023-05-16T13:52:40.263Z,82.80
2023-05-16T13:55:10.585Z,84.00
2023-05-16T13:57:39.390Z,82.60
2023-05-16T14:02:44.486Z,81.40
2023-05-16T14:05:13.163Z,82.80
2023-05-16T14:07:41.965Z,81.30
2023-05-16T14:10:12.438Z,81.00
2023-05-16T14:12:41.283Z,82.90
2023-05-16T14:15:10.638Z,86.10
2023-05-16T14:17:39.200Z,84.50
2023-05-16T14:20:10.786Z,85.70
2023-05-16T14:22:39.703Z,84.90
2023-05-16T14:25:09.022Z,86.30
2023-05-16T14:27:38.805Z,84.00
2023-05-16T14:30:09.565Z,86.10
2023-05-16T14:32:38.431Z,85.10
2023-05-16T14:35:07.770Z,84.50
2023-05-16T14:37:36.426Z,83.40
2023-05-16T14:40:06.401Z,82.00
2023-05-16T14:42:34.881Z,83.20
2023-05-16T14:45:04.889Z,83.40
2023-05-16T14:47:33.448Z,81.70
2023-05-16T14:50:01.983Z,79.70
2023-05-16T14:52:30.578Z,83.70
2023-05-16T14:54:59.145Z,80.60
2023-05-16T14:57:27.661Z,79.70
2023-05-16T14:59:56.137Z,82.00
2023-05-16T15:02:26.898Z,81.60
2023-05-16T15:04:55.784Z,81.20
2023-05-16T15:07:24.572Z,84.10
2023-05-16T15:09:52.929Z,82.80
2023-05-16T15:12:21.742Z,82.30
2023-05-16T15:14:50.119Z,82.50
2023-05-16T15:17:18.534Z,81.20
2023-05-16T15:19:49.014Z,83.70
2023-05-16T15:22:17.381Z,83.50
2023-05-16T15:24:45.784Z,83.20
2023-05-16T15:27:14.232Z,84.00
2023-05-16T15:29:42.565Z,82.40
2023-05-16T15:32:13.715Z,83.40
2023-05-16T15:34:42.232Z,82.40
2023-05-16T15:37:12.232Z,83.10
2023-05-16T15:39:40.631Z,81.10
2023-05-16T15:42:11.434Z,82.80
2023-05-16T15:44:40.285Z,83.10
2023-05-16T15:47:09.044Z,82.90
2023-05-16T15:49:37.458Z,82.90
2023-05-16T15:52:06.494Z,82.80
2023-05-16T15:54:37.614Z,83.00
2023-05-16T15:57:06.478Z,83.30
2023-05-16T15:59:34.831Z,83.00
2023-05-16T16:02:05.480Z,85.00
2023-05-16T16:04:33.825Z,83.40
2023-05-16T16:07:02.157Z,84.90
2023-05-16T16:09:30.553Z,86.10
2023-05-16T16:12:00.258Z,85.00
2023-05-16T16:14:28.630Z,83.80
2023-05-16T16:16:57.227Z,84.50
2023-05-16T16:19:26.740Z,86.40
2023-05-16T16:21:55.366Z,84.80
2023-05-16T16:24:23.818Z,85.30
2023-05-16T16:26:52.119Z,85.30
2023-05-16T16:29:21.843Z,85.80
2023-05-16T16:31:50.318Z,87.20
2023-05-16T16:34:20.939Z,84.40
2023-05-16T16:36:50.812Z,86.30
2023-05-16T16:39:19.553Z,84.00
2023-05-16T16:41:48.118Z,84.10
2023-05-16T16:44:16.482Z,84.60
2023-05-16T16:46:46.436Z,85.60
2023-05-16T16:49:14.840Z,82.90
2023-05-16T16:51:43.187Z,82.50
2023-05-16T16:54:11.651Z,83.20
2023-05-16T16:56:40.045Z,84.90
2023-05-16T16:59:08.488Z,85.40
2023-05-16T17:01:36.992Z,84.20
2023-05-16T17:04:06.831Z,84.00
2023-05-16T17:06:35.181Z,86.10
2023-05-16T17:09:06.419Z,87.30
2023-05-16T17:11:36.322Z,85.70
2023-05-16T17:14:06.167Z,86.20
2023-05-16T17:16:34.689Z,85.40
2023-05-16T17:19:04.564Z,86.20
2023-05-16T17:21:36.890Z,84.50
2023-05-16T17:24:05.820Z,86.40
2023-05-16T17:26:34.534Z,86.90
2023-05-16T17:29:04.332Z,86.90
2023-05-16T17:31:32.712Z,87.80
2023-05-16T17:34:01.090Z,87.50
2023-05-16T17:36:29.508Z,87.20
2023-05-16T17:38:59.592Z,87.50
2023-05-16T17:41:27.950Z,86.90
2023-05-16T17:43:56.320Z,87.60
2023-05-16T17:46:24.794Z,87.30
2023-05-16T17:48:53.752Z,88.60
2023-05-16T17:51:22.172Z,87.80
2023-05-16T17:53:51.472Z,88.30
2023-05-16T17:56:21.260Z,88.70
2023-05-16T17:58:50.173Z,86.70
2023-05-16T18:01:18.515Z,86.60
2023-05-16T18:03:47.083Z,86.90
2023-05-16T18:06:15.464Z,88.50
2023-05-16T18:08:43.937Z,86.80
2023-05-16T18:11:12.332Z,87.80
2023-05-16T18:13:42.309Z,86.40
2023-05-16T18:16:10.806Z,87.80
2023-05-16T18:18:39.273Z,88.50
2023-05-16T18:21:08.005Z,88.80
2023-05-16T18:23:36.496Z,89.10
2023-05-16T18:26:04.983Z,90.20
2023-05-16T18:28:33.454Z,90.60
2023-05-16T18:31:04.284Z,90.50
2023-05-16T18:33:32.706Z,90.70
2023-05-16T18:36:01.050Z,90.60
2023-05-16T18:38:33.062Z,91.50
2023-05-16T18:41:02.230Z,91.20
2023-05-16T18:43:31.018Z,91.50
2023-05-16T18:45:59.374Z,91.40
2023-05-16T18:48:29.323Z,91.50
2023-05-16T18:50:57.788Z,91.50
2023-05-16T18:53:26.217Z,91.70
2023-05-16T18:55:54.689Z,92.60
2023-05-16T18:58:23.147Z,92.40
2023-05-16T19:00:51.651Z,92.50
2023-05-16T19:03:20.098Z,92.70
2023-05-16T19:05:50.147Z,92.70
2023-05-16T19:08:18.558Z,92.70
2023-05-16T19:10:46.893Z,92.90
2023-05-16T19:13:15.342Z,92.70
2023-05-16T19:15:43.767Z,92.80
2023-05-16T19:18:12.343Z,93.10
2023-05-16T19:20:41.226Z,93.30
2023-05-16T19:23:11.883Z,93.50
2023-05-16T19:25:45.669Z,93.60
2023-05-16T19:28:14.242Z,93.90
2023-05-16T19:30:44.062Z,93.80
2023-05-16T19:33:12.542Z,94.60
2023-05-16T19:35:40.971Z,94.70
2023-05-16T19:38:09.328Z,95.10
2023-05-16T19:40:39.061Z,95.40
2023-05-16T19:43:07.407Z,95.30
2023-05-16T19:45:35.739Z,95.40
2023-05-16T19:48:04.218Z,95.50
2023-05-16T19:50:32.796Z,95.50
2023-05-16T19:53:01.219Z,95.50
2023-05-16T19:55:31.277Z,95.70
2023-05-16T19:58:01.140Z,96.00
2023-05-16T20:00:29.742Z,96.00
2023-05-16T20:02:58.126Z,95.90
2023-05-16T20:05:27.019Z,95.70
2023-05-16T20:07:56.144Z,95.60
2023-05-16T20:10:24.877Z,95.80
2023-05-16T20:12:53.440Z,95.90
2023-05-16T20:15:23.142Z,96.00
2023-05-16T20:17:51.509Z,96.30
2023-05-16T20:20:19.848Z,96.30
2023-05-16T20:22:48.249Z,96.40
2023-05-16T20:25:16.562Z,96.50
2023-05-16T20:27:44.932Z,96.80
2023-05-16T20:30:14.422Z,96.70
2023-05-16T20:32:44.325Z,96.90
2023-05-16T20:35:14.750Z,97.20
2023-05-16T20:37:43.352Z,97.60
2023-05-16T20:40:12.149Z,97.90
2023-05-16T20:42:40.533Z,98.20
2023-05-16T20:45:09.961Z,98.50
2023-05-16T20:47:38.335Z,98.60
2023-05-16T20:50:09.310Z,98.90
2023-05-16T20:52:37.692Z,99.00
2023-05-16T20:55:06.822Z,99.20
2023-05-16T20:57:35.165Z,99.30
2023-05-16T21:00:03.468Z,99.50
2023-05-16T21:02:33.305Z,99.60
2023-05-16T21:05:14.374Z,99.80
2023-05-16T21:07:44.803Z,99.90
2023-05-16T21:10:13.406Z,99.90
2023-05-16T21:12:41.756Z,99.90
2023-05-16T21:15:11.120Z,99.90
2023-05-16T21:17:41.486Z,99.90
2023-05-16T21:20:10.744Z,99.90
2023-05-16T21:22:39.091Z,99.90
2023-05-16T21:25:09.796Z,99.90
2023-05-16T21:27:38.168Z,99.90
2023-05-16T21:30:07.378Z,99.90
2023-05-16T21:32:35.905Z,99.90
2023-05-16T21:35:04.836Z,99.90
2023-05-16T21:37:33.230Z,99.90
2023-05-16T21:40:01.787Z,99.90
2023-05-16T21:42:31.953Z,99.90
2023-05-16T21:45:00.343Z,99.90
2023-05-16T21:47:28.811Z,99.90
2023-05-16T21:49:57.183Z,99.90
2023-05-16T21:52:25.855Z,99.90
2023-05-16T21:54:54.255Z,99.90
2023-05-16T21:57:22.583Z,99.90
2023-05-16T21:59:52.285Z,99.90
2023-05-16T22:02:23.175Z,99.90
2023-05-16T22:04:52.224Z,99.90
2023-05-16T22:07:20.803Z,99.90
2023-05-16T22:09:50.872Z,99.90
2023-05-16T22:12:19.245Z,99.90
2023-05-16T22:14:47.584Z,99.90
2023-05-16T22:17:19.226Z,99.90
2023-05-16T22:19:48.383Z,99.90
2023-05-16T22:22:16.911Z,99.90
2023-05-16T22:24:45.293Z,99.90
2023-05-16T22:27:13.580Z,99.90
2023-05-16T22:29:41.956Z,99.90
2023-05-16T22:32:11.393Z,99.90
2023-05-16T22:34:41.178Z,99.90
2023-05-16T22:37:10.125Z,99.90
2023-05-16T22:39:38.432Z,99.90
2023-05-16T22:42:07.322Z,99.90
2023-05-16T22:44:35.626Z,99.90
2023-05-16T22:47:03.920Z,99.90
2023-05-16T22:49:32.180Z,99.90
2023-05-16T22:52:01.941Z,99.90
2023-05-16T22:54:30.276Z,99.90
2023-05-16T22:56:58.623Z,99.90
2023-05-16T22:59:26.906Z,99.90
2023-05-16T23:01:55.292Z,99.90
2023-05-16T23:04:23.606Z,99.90
2023-05-16T23:06:52.105Z,99.90
2023-05-16T23:09:21.803Z,99.90
2023-05-16T23:11:50.298Z,99.90
2023-05-16T23:14:18.678Z,99.90
2023-05-16T23:16:47.023Z,99.90
2023-05-16T23:19:15.399Z,99.90
2023-05-16T23:21:44.470Z,99.90
2023-05-16T23:24:12.795Z,99.90
2023-05-16T23:26:42.524Z,99.90
2023-05-16T23:29:10.859Z,99.90
2023-05-16T23:31:42.318Z,99.90
2023-05-16T23:34:10.761Z,99.90
2023-05-16T23:36:39.255Z,99.90
2023-05-16T23:39:08.204Z,99.90
2023-05-16T23:41:36.537Z,99.90
2023-05-16T23:44:06.481Z,99.90
2023-05-16T23:46:34.863Z,99.90
2023-05-16T23:49:03.271Z,99.90
2023-05-16T23:51:44.968Z,99.90
2023-05-16T23:54:19.993Z,99.90
2023-05-16T23:56:48.347Z,99.90
2023-05-16T23:59:19.119Z,99.90
